sensor_id;sensor_type;location;lat;lon;timestamp;P1;durP1;ratioP1;P2;durP2;ratioP2
1601;SDS011;794;48.592;9.634;2023-12-22T00:00:24;1.73;;;1.13;;
1601;SDS011;794;48.592;9.634;2023-12-22T00:02:51;2.23;;;0.87;;
1601;SDS011;794;48.592;9.634;2023-12-22T00:05:19;2.07;;;0.70;;
1601;SDS011;794;48.592;9.634;2023-12-22T00:07:46;3.53;;;1.00;;
1601;SDS011;794;48.592;9.634;2023-12-22T00:10:13;3.17;;;1.53;;
1601;SDS011;794;48.592;9.634;2023-12-22T00:12:40;4.73;;;0.90;;
1601;SDS011;794;48.592;9.634;2023-12-22T00:15:09;5.50;;;1.30;;
1601;SDS011;794;48.592;9.634;2023-12-22T00:17:36;1.50;;;0.80;;
1601;SDS011;794;48.592;9.634;2023-12-22T00:20:03;1.20;;;1.10;;
1601;SDS011;794;48.592;9.634;2023-12-22T00:22:32;4.03;;;1.87;;
1601;SDS011;794;48.592;9.634;2023-12-22T00:24:59;4.07;;;1.37;;
1601;SDS011;794;48.592;9.634;2023-12-22T00:27:26;2.60;;;1.03;;
1601;SDS011;794;48.592;9.634;2023-12-22T00:29:53;2.23;;;1.27;;
1601;SDS011;794;48.592;9.634;2023-12-22T00:32:20;3.93;;;1.27;;
1601;SDS011;794;48.592;9.634;2023-12-22T00:34:47;6.00;;;1.60;;
1601;SDS011;794;48.592;9.634;2023-12-22T00:37:13;1.50;;;1.40;;
1601;SDS011;794;48.592;9.634;2023-12-22T00:39:42;3.57;;;1.63;;
1601;SDS011;794;48.592;9.634;2023-12-22T00:42:08;1.57;;;1.47;;
1601;SDS011;794;48.592;9.634;2023-12-22T00:44:35;1.90;;;1.30;;
1601;SDS011;794;48.592;9.634;2023-12-22T00:47:04;2.93;;;1.83;;
1601;SDS011;794;48.592;9.634;2023-12-22T00:49:31;4.40;;;1.17;;
1601;SDS011;794;48.592;9.634;2023-12-22T00:51:58;3.77;;;1.70;;
1601;SDS011;794;48.592;9.634;2023-12-22T00:54:25;3.03;;;2.10;;
1601;SDS011;794;48.592;9.634;2023-12-22T00:56:55;2.10;;;1.63;;
1601;SDS011;794;48.592;9.634;2023-12-22T00:59:22;6.90;;;1.90;;
1601;SDS011;794;48.592;9.634;2023-12-22T01:01:48;1.57;;;1.47;;
1601;SDS011;794;48.592;9.634;2023-12-22T01:04:15;6.23;;;1.73;;
1601;SDS011;794;48.592;9.634;2023-12-22T01:06:42;4.40;;;2.27;;
1601;SDS011;794;48.592;9.634;2023-12-22T01:09:09;2.53;;;1.70;;
1601;SDS011;794;48.592;9.634;2023-12-22T01:11:37;6.93;;;2.77;;
1601;SDS011;794;48.592;9.634;2023-12-22T01:14:05;1.33;;;1.07;;
1601;SDS011;794;48.592;9.634;2023-12-22T01:16:32;2.50;;;1.00;;
1601;SDS011;794;48.592;9.634;2023-12-22T01:19:02;0.90;;;0.90;;
1601;SDS011;794;48.592;9.634;2023-12-22T01:21:30;1.70;;;1.07;;
1601;SDS011;794;48.592;9.634;2023-12-22T01:23:58;4.20;;;1.53;;
1601;SDS011;794;48.592;9.634;2023-12-22T01:26:27;3.83;;;1.47;;
1601;SDS011;794;48.592;9.634;2023-12-22T01:28:54;2.40;;;1.50;;
1601;SDS011;794;48.592;9.634;2023-12-22T01:31:25;3.43;;;1.60;;
1601;SDS011;794;48.592;9.634;2023-12-22T01:33:52;2.50;;;1.50;;
1601;SDS011;794;48.592;9.634;2023-12-22T01:36:19;6.53;;;1.63;;
1601;SDS011;794;48.592;9.634;2023-12-22T01:38:46;6.13;;;1.70;;
1601;SDS011;794;48.592;9.634;2023-12-22T01:41:13;2.77;;;1.90;;
1601;SDS011;794;48.592;9.634;2023-12-22T01:43:40;2.27;;;1.37;;
1601;SDS011;794;48.592;9.634;2023-12-22T01:46:08;5.33;;;2.27;;
1601;SDS011;794;48.592;9.634;2023-12-22T01:48:38;5.00;;;1.80;;
1601;SDS011;794;48.592;9.634;2023-12-22T01:51:06;2.83;;;1.90;;
1601;SDS011;794;48.592;9.634;2023-12-22T01:53:33;7.30;;;1.80;;
1601;SDS011;794;48.592;9.634;2023-12-22T01:56:01;1.57;;;1.47;;
1601;SDS011;794;48.592;9.634;2023-12-22T01:58:28;2.63;;;1.63;;
1601;SDS011;794;48.592;9.634;2023-12-22T02:00:59;2.07;;;1.60;;
1601;SDS011;794;48.592;9.634;2023-12-22T02:03:26;4.10;;;1.30;;
1601;SDS011;794;48.592;9.634;2023-12-22T02:05:55;2.50;;;1.30;;
1601;SDS011;794;48.592;9.634;2023-12-22T02:08:22;7.63;;;2.40;;
1601;SDS011;794;48.592;9.634;2023-12-22T02:10:52;3.10;;;1.03;;
1601;SDS011;794;48.592;9.634;2023-12-22T02:13:19;10.00;;;1.50;;
1601;SDS011;794;48.592;9.634;2023-12-22T02:15:46;7.90;;;1.40;;
1601;SDS011;794;48.592;9.634;2023-12-22T02:18:19;6.20;;;1.00;;
1601;SDS011;794;48.592;9.634;2023-12-22T02:20:51;5.07;;;2.00;;
1601;SDS011;794;48.592;9.634;2023-12-22T02:23:20;6.43;;;1.50;;
1601;SDS011;794;48.592;9.634;2023-12-22T02:25:47;1.67;;;1.10;;
1601;SDS011;794;48.592;9.634;2023-12-22T02:28:16;5.27;;;1.40;;
1601;SDS011;794;48.592;9.634;2023-12-22T02:30:47;3.43;;;1.20;;
1601;SDS011;794;48.592;9.634;2023-12-22T02:33:19;1.77;;;0.90;;
1601;SDS011;794;48.592;9.634;2023-12-22T02:35:48;1.83;;;1.03;;
1601;SDS011;794;48.592;9.634;2023-12-22T02:38:16;2.10;;;1.10;;
1601;SDS011;794;48.592;9.634;2023-12-22T02:40:45;1.90;;;1.00;;
1601;SDS011;794;48.592;9.634;2023-12-22T02:43:12;1.40;;;0.73;;
1601;SDS011;794;48.592;9.634;2023-12-22T02:45:39;1.10;;;0.90;;
1601;SDS011;794;48.592;9.634;2023-12-22T02:48:06;1.53;;;0.73;;
1601;SDS011;794;48.592;9.634;2023-12-22T02:50:33;1.00;;;0.87;;
1601;SDS011;794;48.592;9.634;2023-12-22T02:53:00;1.83;;;0.90;;
1601;SDS011;794;48.592;9.634;2023-12-22T02:55:26;3.63;;;0.90;;
1601;SDS011;794;48.592;9.634;2023-12-22T02:57:55;4.20;;;1.27;;
1601;SDS011;794;48.592;9.634;2023-12-22T03:00:21;1.53;;;0.70;;
1601;SDS011;794;48.592;9.634;2023-12-22T03:02:48;0.90;;;0.70;;
1601;SDS011;794;48.592;9.634;2023-12-22T03:05:15;2.47;;;0.77;;
1601;SDS011;794;48.592;9.634;2023-12-22T03:07:42;4.20;;;0.70;;
1601;SDS011;794;48.592;9.634;2023-12-22T03:10:09;2.37;;;1.00;;
1601;SDS011;794;48.592;9.634;2023-12-22T03:12:36;1.87;;;1.00;;
1601;SDS011;794;48.592;9.634;2023-12-22T03:15:05;4.43;;;1.23;;
1601;SDS011;794;48.592;9.634;2023-12-22T03:17:33;5.60;;;1.60;;
1601;SDS011;794;48.592;9.634;2023-12-22T03:19:59;1.90;;;0.63;;
1601;SDS011;794;48.592;9.634;2023-12-22T03:22:26;2.50;;;0.90;;
1601;SDS011;794;48.592;9.634;2023-12-22T03:24:53;1.23;;;0.70;;
1601;SDS011;794;48.592;9.634;2023-12-22T03:27:20;4.93;;;1.07;;
1601;SDS011;794;48.592;9.634;2023-12-22T03:29:47;2.30;;;1.50;;
1601;SDS011;794;48.592;9.634;2023-12-22T03:32:15;4.60;;;1.33;;
1601;SDS011;794;48.592;9.634;2023-12-22T03:34:42;4.10;;;1.10;;
1601;SDS011;794;48.592;9.634;2023-12-22T03:37:09;6.80;;;1.23;;
1601;SDS011;794;48.592;9.634;2023-12-22T03:39:36;4.30;;;1.70;;
1601;SDS011;794;48.592;9.634;2023-12-22T03:42:03;3.60;;;1.10;;
1601;SDS011;794;48.592;9.634;2023-12-22T03:44:30;1.77;;;0.87;;
1601;SDS011;794;48.592;9.634;2023-12-22T03:46:57;2.67;;;0.97;;
1601;SDS011;794;48.592;9.634;2023-12-22T03:49:25;2.80;;;1.40;;
1601;SDS011;794;48.592;9.634;2023-12-22T03:51:52;1.00;;;0.70;;
1601;SDS011;794;48.592;9.634;2023-12-22T03:54:19;1.10;;;1.00;;
1601;SDS011;794;48.592;9.634;2023-12-22T03:56:46;2.43;;;1.03;;
1601;SDS011;794;48.592;9.634;2023-12-22T03:59:13;3.20;;;1.13;;
1601;SDS011;794;48.592;9.634;2023-12-22T04:01:39;1.80;;;0.87;;
1601;SDS011;794;48.592;9.634;2023-12-22T04:04:08;4.10;;;1.10;;
1601;SDS011;794;48.592;9.634;2023-12-22T04:06:38;2.17;;;1.07;;
1601;SDS011;794;48.592;9.634;2023-12-22T04:09:05;4.97;;;1.03;;
1601;SDS011;794;48.592;9.634;2023-12-22T04:11:32;2.20;;;0.80;;
1601;SDS011;794;48.592;9.634;2023-12-22T04:13:59;3.40;;;1.20;;
1601;SDS011;794;48.592;9.634;2023-12-22T04:16:26;4.87;;;1.37;;
1601;SDS011;794;48.592;9.634;2023-12-22T04:18:53;2.87;;;0.80;;
1601;SDS011;794;48.592;9.634;2023-12-22T04:21:20;1.33;;;0.90;;
1601;SDS011;794;48.592;9.634;2023-12-22T04:23:48;1.57;;;0.80;;
1601;SDS011;794;48.592;9.634;2023-12-22T04:26:15;3.20;;;1.03;;
1601;SDS011;794;48.592;9.634;2023-12-22T04:28:42;4.13;;;1.50;;
1601;SDS011;794;48.592;9.634;2023-12-22T04:31:09;3.23;;;1.13;;
1601;SDS011;794;48.592;9.634;2023-12-22T04:33:36;3.50;;;1.50;;
1601;SDS011;794;48.592;9.634;2023-12-22T04:36:03;2.03;;;1.03;;
1601;SDS011;794;48.592;9.634;2023-12-22T04:38:30;2.87;;;1.00;;
1601;SDS011;794;48.592;9.634;2023-12-22T04:40:58;2.90;;;2.00;;
1601;SDS011;794;48.592;9.634;2023-12-22T04:43:25;5.83;;;1.67;;
1601;SDS011;794;48.592;9.634;2023-12-22T04:45:52;2.50;;;0.83;;
1601;SDS011;794;48.592;9.634;2023-12-22T04:48:20;5.73;;;1.67;;
1601;SDS011;794;48.592;9.634;2023-12-22T04:50:47;3.63;;;1.73;;
1601;SDS011;794;48.592;9.634;2023-12-22T04:53:13;3.97;;;1.50;;
1601;SDS011;794;48.592;9.634;2023-12-22T04:55:40;2.23;;;1.57;;
1601;SDS011;794;48.592;9.634;2023-12-22T04:58:08;2.93;;;1.40;;
1601;SDS011;794;48.592;9.634;2023-12-22T05:00:35;7.40;;;1.60;;
1601;SDS011;794;48.592;9.634;2023-12-22T05:03:02;3.70;;;1.27;;
1601;SDS011;794;48.592;9.634;2023-12-22T05:05:29;6.60;;;1.47;;
1601;SDS011;794;48.592;9.634;2023-12-22T05:07:56;3.73;;;1.30;;
1601;SDS011;794;48.592;9.634;2023-12-22T05:10:24;2.13;;;1.10;;
1601;SDS011;794;48.592;9.634;2023-12-22T05:12:50;5.93;;;1.43;;
1601;SDS011;794;48.592;9.634;2023-12-22T05:15:19;4.07;;;1.50;;
1601;SDS011;794;48.592;9.634;2023-12-22T05:17:45;3.67;;;1.50;;
1601;SDS011;794;48.592;9.634;2023-12-22T05:20:12;2.20;;;0.80;;
1601;SDS011;794;48.592;9.634;2023-12-22T05:22:39;5.97;;;1.10;;
1601;SDS011;794;48.592;9.634;2023-12-22T05:25:07;2.00;;;0.90;;
1601;SDS011;794;48.592;9.634;2023-12-22T05:27:35;3.73;;;2.60;;
1601;SDS011;794;48.592;9.634;2023-12-22T05:30:02;6.83;;;1.97;;
1601;SDS011;794;48.592;9.634;2023-12-22T05:32:31;7.53;;;1.27;;
1601;SDS011;794;48.592;9.634;2023-12-22T05:34:58;2.90;;;1.60;;
1601;SDS011;794;48.592;9.634;2023-12-22T05:37:25;4.50;;;1.90;;
1601;SDS011;794;48.592;9.634;2023-12-22T05:39:52;8.67;;;2.67;;
1601;SDS011;794;48.592;9.634;2023-12-22T05:42:20;7.70;;;2.30;;
1601;SDS011;794;48.592;9.634;2023-12-22T05:44:47;4.10;;;1.70;;
1601;SDS011;794;48.592;9.634;2023-12-22T05:47:14;1.97;;;1.43;;
1601;SDS011;794;48.592;9.634;2023-12-22T05:49:43;8.43;;;2.87;;
1601;SDS011;794;48.592;9.634;2023-12-22T05:52:11;15.53;;;6.67;;
1601;SDS011;794;48.592;9.634;2023-12-22T05:54:38;24.73;;;13.00;;
1601;SDS011;794;48.592;9.634;2023-12-22T05:57:05;12.10;;;5.47;;
1601;SDS011;794;48.592;9.634;2023-12-22T05:59:32;3.80;;;1.93;;
1601;SDS011;794;48.592;9.634;2023-12-22T06:01:59;3.20;;;1.90;;
1601;SDS011;794;48.592;9.634;2023-12-22T06:04:27;10.20;;;1.83;;
1601;SDS011;794;48.592;9.634;2023-12-22T06:06:56;4.97;;;2.40;;
1601;SDS011;794;48.592;9.634;2023-12-22T06:09:23;3.97;;;1.63;;
1601;SDS011;794;48.592;9.634;2023-12-22T06:11:50;4.97;;;1.60;;
1601;SDS011;794;48.592;9.634;2023-12-22T06:14:16;6.67;;;1.93;;
1601;SDS011;794;48.592;9.634;2023-12-22T06:16:43;4.33;;;1.80;;
1601;SDS011;794;48.592;9.634;2023-12-22T06:19:10;2.73;;;1.40;;
1601;SDS011;794;48.592;9.634;2023-12-22T06:21:38;5.40;;;1.90;;
1601;SDS011;794;48.592;9.634;2023-12-22T06:24:06;5.70;;;2.07;;
1601;SDS011;794;48.592;9.634;2023-12-22T06:26:34;5.10;;;1.90;;
1601;SDS011;794;48.592;9.634;2023-12-22T06:29:01;7.87;;;2.40;;
1601;SDS011;794;48.592;9.634;2023-12-22T06:31:29;3.77;;;1.80;;
1601;SDS011;794;48.592;9.634;2023-12-22T06:33:56;3.87;;;1.43;;
1601;SDS011;794;48.592;9.634;2023-12-22T06:36:27;7.67;;;1.80;;
1601;SDS011;794;48.592;9.634;2023-12-22T06:38:54;7.30;;;3.70;;
1601;SDS011;794;48.592;9.634;2023-12-22T06:41:24;6.67;;;1.70;;
1601;SDS011;794;48.592;9.634;2023-12-22T06:43:52;5.47;;;2.23;;
1601;SDS011;794;48.592;9.634;2023-12-22T06:46:20;5.40;;;2.67;;
1601;SDS011;794;48.592;9.634;2023-12-22T06:48:48;2.33;;;1.30;;
1601;SDS011;794;48.592;9.634;2023-12-22T06:51:18;12.13;;;2.17;;
1601;SDS011;794;48.592;9.634;2023-12-22T06:53:46;3.37;;;2.00;;
1601;SDS011;794;48.592;9.634;2023-12-22T06:56:16;7.97;;;2.67;;
1601;SDS011;794;48.592;9.634;2023-12-22T06:58:45;2.87;;;1.30;;
1601;SDS011;794;48.592;9.634;2023-12-22T07:01:17;6.63;;;1.53;;
1601;SDS011;794;48.592;9.634;2023-12-22T07:03:46;5.57;;;1.93;;
1601;SDS011;794;48.592;9.634;2023-12-22T07:06:13;3.80;;;1.53;;
1601;SDS011;794;48.592;9.634;2023-12-22T07:08:40;10.20;;;1.63;;
1601;SDS011;794;48.592;9.634;2023-12-22T07:11:07;6.63;;;1.77;;
1601;SDS011;794;48.592;9.634;2023-12-22T07:13:34;2.30;;;1.57;;
1601;SDS011;794;48.592;9.634;2023-12-22T07:16:03;3.13;;;1.80;;
1601;SDS011;794;48.592;9.634;2023-12-22T07:18:29;2.67;;;1.73;;
1601;SDS011;794;48.592;9.634;2023-12-22T07:20:56;8.63;;;1.73;;
1601;SDS011;794;48.592;9.634;2023-12-22T07:23:23;6.73;;;1.70;;
1601;SDS011;794;48.592;9.634;2023-12-22T07:25:51;7.97;;;1.83;;
1601;SDS011;794;48.592;9.634;2023-12-22T07:28:18;1.77;;;1.10;;
1601;SDS011;794;48.592;9.634;2023-12-22T07:30:45;6.50;;;1.43;;
1601;SDS011;794;48.592;9.634;2023-12-22T07:33:13;2.80;;;1.33;;
1601;SDS011;794;48.592;9.634;2023-12-22T07:35:40;5.03;;;2.10;;
1601;SDS011;794;48.592;9.634;2023-12-22T07:38:07;4.23;;;1.80;;
1601;SDS011;794;48.592;9.634;2023-12-22T07:40:34;4.77;;;1.73;;
1601;SDS011;794;48.592;9.634;2023-12-22T07:43:01;5.30;;;1.73;;
1601;SDS011;794;48.592;9.634;2023-12-22T07:45:29;6.77;;;2.43;;
1601;SDS011;794;48.592;9.634;2023-12-22T07:47:55;7.23;;;2.10;;
1601;SDS011;794;48.592;9.634;2023-12-22T07:50:24;7.80;;;3.70;;
1601;SDS011;794;48.592;9.634;2023-12-22T07:52:51;19.57;;;4.63;;
1601;SDS011;794;48.592;9.634;2023-12-22T07:55:18;11.33;;;5.70;;
1601;SDS011;794;48.592;9.634;2023-12-22T07:57:45;5.27;;;1.67;;
1601;SDS011;794;48.592;9.634;2023-12-22T08:00:12;8.13;;;2.00;;
1601;SDS011;794;48.592;9.634;2023-12-22T08:02:39;7.20;;;2.40;;
1601;SDS011;794;48.592;9.634;2023-12-22T08:05:06;9.00;;;1.80;;
1601;SDS011;794;48.592;9.634;2023-12-22T08:07:36;4.80;;;2.50;;
1601;SDS011;794;48.592;9.634;2023-12-22T08:10:03;5.03;;;2.33;;
1601;SDS011;794;48.592;9.634;2023-12-22T08:12:31;5.00;;;2.13;;
1601;SDS011;794;48.592;9.634;2023-12-22T08:14:58;7.10;;;2.50;;
1601;SDS011;794;48.592;9.634;2023-12-22T08:17:25;4.40;;;2.20;;
1601;SDS011;794;48.592;9.634;2023-12-22T08:19:51;4.20;;;2.10;;
1601;SDS011;794;48.592;9.634;2023-12-22T08:22:18;6.17;;;2.37;;
1601;SDS011;794;48.592;9.634;2023-12-22T08:24:46;6.03;;;1.60;;
1601;SDS011;794;48.592;9.634;2023-12-22T08:27:13;7.33;;;2.20;;
1601;SDS011;794;48.592;9.634;2023-12-22T08:29:40;9.30;;;2.60;;
1601;SDS011;794;48.592;9.634;2023-12-22T08:32:07;6.43;;;2.23;;
1601;SDS011;794;48.592;9.634;2023-12-22T08:34:34;7.33;;;2.00;;
1601;SDS011;794;48.592;9.634;2023-12-22T08:37:01;5.00;;;1.53;;
1601;SDS011;794;48.592;9.634;2023-12-22T08:39:28;3.90;;;1.93;;
1601;SDS011;794;48.592;9.634;2023-12-22T08:41:56;8.10;;;1.97;;
1601;SDS011;794;48.592;9.634;2023-12-22T08:44:23;6.13;;;2.80;;
1601;SDS011;794;48.592;9.634;2023-12-22T08:46:50;7.30;;;2.63;;
1601;SDS011;794;48.592;9.634;2023-12-22T08:49:17;7.57;;;3.20;;
1601;SDS011;794;48.592;9.634;2023-12-22T08:51:44;14.57;;;3.87;;
1601;SDS011;794;48.592;9.634;2023-12-22T08:54:11;6.40;;;3.40;;
1601;SDS011;794;48.592;9.634;2023-12-22T08:56:38;10.37;;;4.20;;
1601;SDS011;794;48.592;9.634;2023-12-22T08:59:08;16.40;;;3.50;;
1601;SDS011;794;48.592;9.634;2023-12-22T09:01:35;6.33;;;2.10;;
1601;SDS011;794;48.592;9.634;2023-12-22T09:04:02;11.27;;;2.70;;
1601;SDS011;794;48.592;9.634;2023-12-22T09:06:31;6.90;;;2.60;;
1601;SDS011;794;48.592;9.634;2023-12-22T09:08:58;9.00;;;2.50;;
1601;SDS011;794;48.592;9.634;2023-12-22T09:11:25;11.97;;;2.50;;
1601;SDS011;794;48.592;9.634;2023-12-22T09:13:52;10.40;;;2.87;;
1601;SDS011;794;48.592;9.634;2023-12-22T09:16:21;8.43;;;2.63;;
1601;SDS011;794;48.592;9.634;2023-12-22T09:18:50;17.97;;;4.03;;
1601;SDS011;794;48.592;9.634;2023-12-22T09:21:17;7.10;;;2.67;;
1601;SDS011;794;48.592;9.634;2023-12-22T09:23:46;9.90;;;2.83;;
1601;SDS011;794;48.592;9.634;2023-12-22T09:26:14;11.30;;;2.90;;
1601;SDS011;794;48.592;9.634;2023-12-22T09:28:43;10.63;;;3.30;;
1601;SDS011;794;48.592;9.634;2023-12-22T09:31:11;6.23;;;2.70;;
1601;SDS011;794;48.592;9.634;2023-12-22T09:33:40;9.77;;;2.37;;
1601;SDS011;794;48.592;9.634;2023-12-22T09:36:07;12.57;;;3.20;;
1601;SDS011;794;48.592;9.634;2023-12-22T09:38:34;10.27;;;2.97;;
1601;SDS011;794;48.592;9.634;2023-12-22T09:41:02;5.60;;;2.33;;
1601;SDS011;794;48.592;9.634;2023-12-22T09:43:30;10.10;;;2.90;;
1601;SDS011;794;48.592;9.634;2023-12-22T09:46:00;12.93;;;6.23;;
1601;SDS011;794;48.592;9.634;2023-12-22T09:48:28;9.70;;;3.47;;
1601;SDS011;794;48.592;9.634;2023-12-22T09:50:58;9.03;;;2.37;;
1601;SDS011;794;48.592;9.634;2023-12-22T09:53:28;6.37;;;2.17;;
1601;SDS011;794;48.592;9.634;2023-12-22T09:55:57;6.53;;;2.47;;
1601;SDS011;794;48.592;9.634;2023-12-22T09:58:25;6.97;;;3.00;;
1601;SDS011;794;48.592;9.634;2023-12-22T10:00:52;11.77;;;3.43;;
1601;SDS011;794;48.592;9.634;2023-12-22T10:03:21;10.00;;;2.80;;
1601;SDS011;794;48.592;9.634;2023-12-22T10:05:52;8.57;;;3.80;;
1601;SDS011;794;48.592;9.634;2023-12-22T10:08:20;9.10;;;3.87;;
1601;SDS011;794;48.592;9.634;2023-12-22T10:10:47;11.03;;;2.40;;
1601;SDS011;794;48.592;9.634;2023-12-22T10:13:17;11.03;;;3.30;;
1601;SDS011;794;48.592;9.634;2023-12-22T10:15:44;9.63;;;2.73;;
1601;SDS011;794;48.592;9.634;2023-12-22T10:18:12;11.10;;;2.80;;
1601;SDS011;794;48.592;9.634;2023-12-22T10:20:40;16.77;;;3.27;;
1601;SDS011;794;48.592;9.634;2023-12-22T10:23:07;5.80;;;2.40;;
1601;SDS011;794;48.592;9.634;2023-12-22T10:25:35;6.00;;;2.90;;
1601;SDS011;794;48.592;9.634;2023-12-22T10:28:02;6.07;;;2.17;;
1601;SDS011;794;48.592;9.634;2023-12-22T10:30:29;18.43;;;2.73;;
1601;SDS011;794;48.592;9.634;2023-12-22T10:32:58;11.80;;;2.33;;
1601;SDS011;794;48.592;9.634;2023-12-22T10:35:25;9.60;;;2.10;;
1601;SDS011;794;48.592;9.634;2023-12-22T10:37:52;10.10;;;3.03;;
1601;SDS011;794;48.592;9.634;2023-12-22T10:40:22;6.50;;;3.07;;
1601;SDS011;794;48.592;9.634;2023-12-22T10:42:51;11.83;;;2.20;;
1601;SDS011;794;48.592;9.634;2023-12-22T10:45:18;3.97;;;2.10;;
1601;SDS011;794;48.592;9.634;2023-12-22T10:47:47;9.07;;;2.87;;
1601;SDS011;794;48.592;9.634;2023-12-22T10:50:16;17.37;;;2.93;;
1601;SDS011;794;48.592;9.634;2023-12-22T10:52:48;5.80;;;2.87;;
1601;SDS011;794;48.592;9.634;2023-12-22T10:55:16;9.17;;;2.10;;
1601;SDS011;794;48.592;9.634;2023-12-22T10:57:44;20.33;;;3.80;;
1601;SDS011;794;48.592;9.634;2023-12-22T11:00:14;8.37;;;3.97;;
1601;SDS011;794;48.592;9.634;2023-12-22T11:02:42;12.67;;;3.00;;
1601;SDS011;794;48.592;9.634;2023-12-22T11:05:13;7.63;;;2.50;;
1601;SDS011;794;48.592;9.634;2023-12-22T11:07:44;8.43;;;2.70;;
1601;SDS011;794;48.592;9.634;2023-12-22T11:10:15;8.37;;;2.80;;
1601;SDS011;794;48.592;9.634;2023-12-22T11:12:45;3.33;;;1.93;;
1601;SDS011;794;48.592;9.634;2023-12-22T11:15:15;11.30;;;3.67;;
1601;SDS011;794;48.592;9.634;2023-12-22T11:17:44;10.50;;;2.53;;
1601;SDS011;794;48.592;9.634;2023-12-22T11:20:12;10.03;;;2.50;;
1601;SDS011;794;48.592;9.634;2023-12-22T11:22:39;5.33;;;2.20;;
1601;SDS011;794;48.592;9.634;2023-12-22T11:25:09;6.90;;;2.43;;
1601;SDS011;794;48.592;9.634;2023-12-22T11:27:36;6.50;;;2.80;;
1601;SDS011;794;48.592;9.634;2023-12-22T11:30:04;6.40;;;2.07;;
1601;SDS011;794;48.592;9.634;2023-12-22T11:32:34;3.70;;;1.17;;
1601;SDS011;794;48.592;9.634;2023-12-22T11:35:02;4.50;;;2.03;;
1601;SDS011;794;48.592;9.634;2023-12-22T11:37:30;1.97;;;1.50;;
1601;SDS011;794;48.592;9.634;2023-12-22T11:39:58;4.53;;;1.27;;
1601;SDS011;794;48.592;9.634;2023-12-22T11:42:26;2.93;;;1.40;;
1601;SDS011;794;48.592;9.634;2023-12-22T11:44:56;2.87;;;1.63;;
1601;SDS011;794;48.592;9.634;2023-12-22T11:47:24;3.30;;;1.67;;
1601;SDS011;794;48.592;9.634;2023-12-22T11:49:54;3.17;;;2.03;;
1601;SDS011;794;48.592;9.634;2023-12-22T11:52:24;2.80;;;2.50;;
1601;SDS011;794;48.592;9.634;2023-12-22T11:54:53;4.63;;;1.70;;
1601;SDS011;794;48.592;9.634;2023-12-22T11:57:34;6.53;;;1.70;;
1601;SDS011;794;48.592;9.634;2023-12-22T12:00:03;1.60;;;1.10;;
1601;SDS011;794;48.592;9.634;2023-12-22T12:02:34;3.53;;;2.10;;
1601;SDS011;794;48.592;9.634;2023-12-22T12:05:05;3.70;;;1.07;;
1601;SDS011;794;48.592;9.634;2023-12-22T12:07:37;6.53;;;2.10;;
1601;SDS011;794;48.592;9.634;2023-12-22T12:10:06;7.03;;;1.90;;
1601;SDS011;794;48.592;9.634;2023-12-22T12:12:34;4.30;;;2.50;;
1601;SDS011;794;48.592;9.634;2023-12-22T12:15:06;1.90;;;1.07;;
1601;SDS011;794;48.592;9.634;2023-12-22T12:17:37;4.07;;;1.73;;
1601;SDS011;794;48.592;9.634;2023-12-22T12:20:07;4.33;;;1.70;;
1601;SDS011;794;48.592;9.634;2023-12-22T12:22:35;2.70;;;1.20;;
1601;SDS011;794;48.592;9.634;2023-12-22T12:25:13;3.00;;;2.10;;
1601;SDS011;794;48.592;9.634;2023-12-22T12:27:41;3.13;;;1.53;;
1601;SDS011;794;48.592;9.634;2023-12-22T12:30:11;2.33;;;0.77;;
1601;SDS011;794;48.592;9.634;2023-12-22T12:32:40;4.63;;;0.97;;
1601;SDS011;794;48.592;9.634;2023-12-22T12:35:11;1.83;;;1.10;;
1601;SDS011;794;48.592;9.634;2023-12-22T12:37:39;1.30;;;0.70;;
1601;SDS011;794;48.592;9.634;2023-12-22T12:40:11;1.23;;;0.70;;
1601;SDS011;794;48.592;9.634;2023-12-22T12:42:39;3.33;;;1.20;;
1601;SDS011;794;48.592;9.634;2023-12-22T12:45:07;5.63;;;2.00;;
1601;SDS011;794;48.592;9.634;2023-12-22T12:47:34;2.97;;;1.07;;
1601;SDS011;794;48.592;9.634;2023-12-22T12:50:02;0.70;;;0.70;;
1601;SDS011;794;48.592;9.634;2023-12-22T12:52:30;2.03;;;1.20;;
1601;SDS011;794;48.592;9.634;2023-12-22T12:54:57;2.60;;;1.00;;
1601;SDS011;794;48.592;9.634;2023-12-22T12:57:26;1.77;;;1.03;;
1601;SDS011;794;48.592;9.634;2023-12-22T12:59:53;2.10;;;1.00;;
1601;SDS011;794;48.592;9.634;2023-12-22T13:02:20;0.97;;;0.87;;
1601;SDS011;794;48.592;9.634;2023-12-22T13:04:47;1.63;;;0.83;;
1601;SDS011;794;48.592;9.634;2023-12-22T13:07:23;1.43;;;0.73;;
1601;SDS011;794;48.592;9.634;2023-12-22T13:09:52;1.13;;;0.97;;
1601;SDS011;794;48.592;9.634;2023-12-22T13:12:22;1.70;;;1.60;;
1601;SDS011;794;48.592;9.634;2023-12-22T13:14:49;2.60;;;1.70;;
1601;SDS011;794;48.592;9.634;2023-12-22T13:17:16;1.80;;;1.20;;
1601;SDS011;794;48.592;9.634;2023-12-22T13:19:43;0.93;;;0.70;;
1601;SDS011;794;48.592;9.634;2023-12-22T13:22:11;1.57;;;1.20;;
1601;SDS011;794;48.592;9.634;2023-12-22T13:24:39;1.53;;;1.17;;
1601;SDS011;794;48.592;9.634;2023-12-22T13:27:07;2.77;;;0.90;;
1601;SDS011;794;48.592;9.634;2023-12-22T13:29:44;0.50;;;0.50;;
1601;SDS011;794;48.592;9.634;2023-12-22T13:32:17;2.80;;;0.60;;
1601;SDS011;794;48.592;9.634;2023-12-22T13:34:48;1.53;;;0.60;;
1601;SDS011;794;48.592;9.634;2023-12-22T13:37:16;1.60;;;0.83;;
1601;SDS011;794;48.592;9.634;2023-12-22T13:39:43;0.70;;;0.60;;
1601;SDS011;794;48.592;9.634;2023-12-22T13:42:15;0.77;;;0.70;;
1601;SDS011;794;48.592;9.634;2023-12-22T13:44:44;2.20;;;0.60;;
1601;SDS011;794;48.592;9.634;2023-12-22T13:47:12;0.80;;;0.80;;
1601;SDS011;794;48.592;9.634;2023-12-22T13:49:40;0.80;;;0.67;;
1601;SDS011;794;48.592;9.634;2023-12-22T13:52:08;0.70;;;0.70;;
1601;SDS011;794;48.592;9.634;2023-12-22T13:54:34;0.90;;;0.80;;
1601;SDS011;794;48.592;9.634;2023-12-22T13:57:01;0.50;;;0.50;;
1601;SDS011;794;48.592;9.634;2023-12-22T13:59:33;0.57;;;0.57;;
1601;SDS011;794;48.592;9.634;2023-12-22T14:02:00;0.97;;;0.90;;
1601;SDS011;794;48.592;9.634;2023-12-22T14:04:27;0.60;;;0.60;;
1601;SDS011;794;48.592;9.634;2023-12-22T14:06:54;0.80;;;0.60;;
1601;SDS011;794;48.592;9.634;2023-12-22T14:09:22;0.50;;;0.50;;
1601;SDS011;794;48.592;9.634;2023-12-22T14:11:49;0.50;;;0.50;;
1601;SDS011;794;48.592;9.634;2023-12-22T14:14:17;1.50;;;0.80;;
1601;SDS011;794;48.592;9.634;2023-12-22T14:16:46;0.77;;;0.70;;
1601;SDS011;794;48.592;9.634;2023-12-22T14:19:12;0.50;;;0.50;;
1601;SDS011;794;48.592;9.634;2023-12-22T14:21:39;0.87;;;0.57;;
1601;SDS011;794;48.592;9.634;2023-12-22T14:24:06;5.63;;;1.57;;
1601;SDS011;794;48.592;9.634;2023-12-22T14:26:48;0.90;;;0.80;;
1601;SDS011;794;48.592;9.634;2023-12-22T14:29:18;0.60;;;0.60;;
1601;SDS011;794;48.592;9.634;2023-12-22T14:31:48;1.60;;;0.60;;
1601;SDS011;794;48.592;9.634;2023-12-22T14:34:16;1.37;;;1.27;;
1601;SDS011;794;48.592;9.634;2023-12-22T14:36:43;0.90;;;0.90;;
1601;SDS011;794;48.592;9.634;2023-12-22T14:39:10;0.60;;;0.60;;
1601;SDS011;794;48.592;9.634;2023-12-22T14:41:38;0.90;;;0.90;;
1601;SDS011;794;48.592;9.634;2023-12-22T14:44:05;0.90;;;0.90;;
1601;SDS011;794;48.592;9.634;2023-12-22T14:46:32;0.70;;;0.60;;
1601;SDS011;794;48.592;9.634;2023-12-22T14:49:01;2.10;;;0.50;;
1601;SDS011;794;48.592;9.634;2023-12-22T14:51:28;1.30;;;0.80;;
1601;SDS011;794;48.592;9.634;2023-12-22T14:53:55;0.53;;;0.53;;
1601;SDS011;794;48.592;9.634;2023-12-22T14:56:21;0.80;;;0.80;;
1601;SDS011;794;48.592;9.634;2023-12-22T14:58:48;0.93;;;0.60;;
1601;SDS011;794;48.592;9.634;2023-12-22T15:01:15;0.60;;;0.60;;
1601;SDS011;794;48.592;9.634;2023-12-22T15:03:42;0.80;;;0.80;;
1601;SDS011;794;48.592;9.634;2023-12-22T15:06:10;0.70;;;0.70;;
1601;SDS011;794;48.592;9.634;2023-12-22T15:08:37;0.90;;;0.80;;
1601;SDS011;794;48.592;9.634;2023-12-22T15:11:04;1.00;;;1.00;;
1601;SDS011;794;48.592;9.634;2023-12-22T15:13:32;1.00;;;1.00;;
1601;SDS011;794;48.592;9.634;2023-12-22T15:16:03;0.70;;;0.70;;
1601;SDS011;794;48.592;9.634;2023-12-22T15:18:30;0.70;;;0.60;;
1601;SDS011;794;48.592;9.634;2023-12-22T15:20:57;0.80;;;0.70;;
1601;SDS011;794;48.592;9.634;2023-12-22T15:23:25;0.70;;;0.70;;
1601;SDS011;794;48.592;9.634;2023-12-22T15:25:52;1.60;;;1.37;;
1601;SDS011;794;48.592;9.634;2023-12-22T15:28:25;0.90;;;0.70;;
1601;SDS011;794;48.592;9.634;2023-12-22T15:30:52;1.23;;;1.00;;
1601;SDS011;794;48.592;9.634;2023-12-22T15:33:19;0.80;;;0.80;;